createdAt,value
2023-02-20T00:02:47.793Z,100653.47
2023-02-20T00:06:52.757Z,100653.16
2023-02-20T00:10:57.559Z,100656.66
2023-02-20T00:14:59.460Z,100651.03
2023-02-20T00:19:01.285Z,100644.44
2023-02-20T00:23:03.406Z,100644.72
2023-02-20T00:27:05.378Z,100631.56
2023-02-20T00:31:07.937Z,100647.66
2023-02-20T00:35:12.510Z,100625.47
2023-02-20T00:39:14.459Z,100623.38
2023-02-20T00:43:16.276Z,100634.34
2023-02-20T00:47:21.213Z,100612.81
2023-02-20T00:51:23.146Z,100623.53
2023-02-20T00:55:24.971Z,100624.09
2023-02-20T00:59:26.776Z,100620.38
2023-02-20T01:03:29.803Z,100617.28
2023-02-20T01:07:31.711Z,100603.25
2023-02-20T01:11:33.479Z,100602.44
2023-02-20T01:15:38.056Z,100604.22
2023-02-20T01:19:40.132Z,100607.44
2023-02-20T01:23:42.050Z,100612.31
2023-02-20T01:27:43.931Z,100590.28
2023-02-20T01:31:53.126Z,100588.41
2023-02-20T01:35:55.007Z,100583.91
2023-02-20T01:39:56.910Z,100571.66
2023-02-20T01:43:58.644Z,100565.44
2023-02-20T01:48:01.653Z,100571.88
2023-02-20T01:52:29.189Z,100557.63
2023-02-20T01:56:31.013Z,100550.97
2023-02-20T02:00:32.825Z,100563.75
2023-02-20T02:04:35.858Z,100557.13
2023-02-20T02:08:38.034Z,100557.94
2023-02-20T02:12:39.881Z,100553.28
2023-02-20T02:17:08.289Z,100548.19
2023-02-20T02:21:40.358Z,100560.13
2023-02-20T02:25:55.547Z,100543.31
2023-02-20T02:30:19.135Z,100549.94
2023-02-20T02:34:46.137Z,100539.91
2023-02-20T02:39:08.994Z,100544.94
2023-02-20T02:43:41.154Z,100540.91
2023-02-20T02:47:57.158Z,100550.88
2023-02-20T02:51:58.962Z,100529.75
2023-02-20T02:56:20.776Z,100527.81
2023-02-20T03:00:47.579Z,100514.81
2023-02-20T03:04:50.957Z,100508.88
2023-02-20T03:09:14.154Z,100505.47
2023-02-20T03:13:16.014Z,100492.97
2023-02-20T03:17:45.126Z,100496.34
2023-02-20T03:21:55.124Z,100499.09
2023-02-20T03:26:12.258Z,100504.03
2023-02-20T03:30:39.161Z,100490.34
2023-02-20T03:34:59.821Z,100492.00
2023-02-20T03:39:26.192Z,100469.78
2023-02-20T03:43:36.035Z,100479.53
2023-02-20T03:47:39.871Z,100474.56
2023-02-20T03:52:04.024Z,100476.09
2023-02-20T03:56:09.942Z,100471.06
2023-02-20T04:00:18.978Z,100470.88
2023-02-20T04:04:38.223Z,100476.16
2023-02-20T04:08:45.462Z,100476.44
2023-02-20T04:12:47.362Z,100463.22
2023-02-20T04:16:58.760Z,100469.34
2023-02-20T04:21:01.095Z,100448.72
2023-02-20T04:25:38.934Z,100435.00
2023-02-20T04:29:40.834Z,100463.63
2023-02-20T04:33:42.711Z,100445.44
2023-02-20T04:37:44.610Z,100442.63
2023-02-20T04:41:46.585Z,100434.66
2023-02-20T04:45:48.556Z,100447.31
2023-02-20T04:49:50.534Z,100457.28
2023-02-20T04:53:52.460Z,100453.28
2023-02-20T04:57:56.214Z,100444.78
2023-02-20T05:02:01.029Z,100454.44
2023-02-20T05:06:03.090Z,100436.97
2023-02-20T05:10:05.029Z,100432.47
2023-02-20T05:14:07.216Z,100446.91
2023-02-20T05:18:09.647Z,100435.44
2023-02-20T05:22:21.534Z,100420.88
2023-02-20T05:26:23.384Z,100415.22
2023-02-20T05:30:25.169Z,100412.88
2023-02-20T05:34:27.052Z,100391.81
2023-02-20T05:38:28.923Z,100369.94
2023-02-20T05:42:30.708Z,100366.25
2023-02-20T05:46:39.497Z,100355.53
2023-02-20T05:50:41.480Z,100351.63
2023-02-20T05:54:47.310Z,100349.47
2023-02-20T05:59:26.492Z,100364.38
2023-02-20T06:03:36.703Z,100340.00
2023-02-20T06:07:46.107Z,100358.31
2023-02-20T06:11:53.826Z,100372.75
2023-02-20T06:15:55.831Z,100372.06
2023-02-20T06:19:58.758Z,100375.59
2023-02-20T06:24:00.594Z,100366.03
2023-02-20T06:28:02.585Z,100360.25
2023-02-20T06:32:04.732Z,100347.72
2023-02-20T06:36:07.174Z,100349.72
2023-02-20T06:40:10.006Z,100364.84
2023-02-20T06:44:11.822Z,100354.31
2023-02-20T06:48:17.570Z,100336.44
2023-02-20T06:52:19.569Z,100322.94
2023-02-20T06:56:29.942Z,100329.00
2023-02-20T07:00:31.925Z,100339.03
2023-02-20T07:04:33.883Z,100326.00
2023-02-20T07:08:35.849Z,100312.44
2023-02-20T07:12:38.556Z,100316.03
2023-02-20T07:16:40.434Z,100309.38
2023-02-20T07:20:44.150Z,100295.31
2023-02-20T07:24:52.255Z,100279.66
2023-02-20T07:28:54.914Z,100280.53
2023-02-20T07:32:56.983Z,100274.22
2023-02-20T07:36:58.899Z,100269.66
2023-02-20T07:41:04.569Z,100248.50
2023-02-20T07:45:15.263Z,100247.34
2023-02-20T07:49:17.176Z,100249.66
2023-02-20T07:53:20.606Z,100243.69
2023-02-20T07:57:22.650Z,100231.38
2023-02-20T08:01:24.491Z,100231.47
2023-02-20T08:05:29.609Z,100250.44
2023-02-20T08:09:41.178Z,100256.09
2023-02-20T08:13:44.704Z,100219.47
2023-02-20T08:17:47.624Z,100195.22
2023-02-20T08:21:50.809Z,100187.31
2023-02-20T08:25:52.722Z,100194.13
2023-02-20T08:29:54.645Z,100186.44
2023-02-20T08:33:57.282Z,100196.81
2023-02-20T08:37:59.198Z,100205.63
2023-02-20T08:42:01.181Z,100200.00
2023-02-20T08:46:03.373Z,100123.03
2023-02-20T08:50:11.212Z,100181.13
2023-02-20T08:54:22.877Z,100181.53
2023-02-20T08:58:25.160Z,100161.47
2023-02-20T09:02:29.955Z,100129.50
2023-02-20T09:06:31.782Z,100135.66
2023-02-20T09:10:33.883Z,100152.69
2023-02-20T09:14:35.991Z,100128.69
2023-02-20T09:18:37.903Z,100115.44
2023-02-20T09:22:39.770Z,100146.19
2023-02-20T09:26:41.777Z,100133.06
2023-02-20T09:30:43.665Z,100120.81
2023-02-20T09:34:45.641Z,100104.59
2023-02-20T09:38:47.620Z,100110.84
2023-02-20T09:43:05.433Z,100098.16
2023-02-20T09:47:47.510Z,100096.16
2023-02-20T09:52:05.042Z,100062.94
2023-02-20T09:56:11.338Z,100082.22
2023-02-20T10:00:31.477Z,100083.81
2023-02-20T10:05:00.841Z,100064.75
2023-02-20T10:09:04.985Z,100071.31
2023-02-20T10:13:43.283Z,100051.03
2023-02-20T10:17:54.535Z,100051.34
2023-02-20T10:22:59.801Z,100060.56
2023-02-20T10:27:42.359Z,100047.69
2023-02-20T10:32:04.934Z,100065.94
2023-02-20T10:36:37.450Z,100038.94
2023-02-20T10:40:51.030Z,100044.53
2023-02-20T10:45:37.680Z,100045.25
2023-02-20T10:49:48.592Z,100044.50
2023-02-20T10:54:06.995Z,100019.13
2023-02-20T10:58:55.661Z,100021.78
2023-02-20T11:03:12.262Z,100004.19
2023-02-20T11:07:17.354Z,99967.41
2023-02-20T11:11:42.491Z,99987.38
2023-02-20T11:15:50.879Z,99954.88
2023-02-20T11:19:58.093Z,99950.06
2023-02-20T11:24:17.145Z,99951.19
2023-02-20T11:28:24.652Z,99944.16
2023-02-20T11:32:37.462Z,99920.53
2023-02-20T11:36:51.242Z,99891.75
2023-02-20T11:41:03.755Z,99885.72
2023-02-20T11:45:43.011Z,99849.00
2023-02-20T11:49:48.167Z,99844.06
2023-02-20T11:54:02.779Z,99869.06
2023-02-20T11:58:11.623Z,99860.06
2023-02-20T12:02:17.306Z,99872.00
2023-02-20T12:06:44.444Z,99846.97
2023-02-20T12:10:51.001Z,99844.34
2023-02-20T12:14:53.211Z,99848.28
2023-02-20T12:19:23.181Z,99844.44
2023-02-20T12:24:03.482Z,99854.63
2023-02-20T12:28:42.592Z,99820.91
2023-02-20T12:33:03.203Z,99814.41
2023-02-20T12:37:36.248Z,99815.34
2023-02-20T12:42:19.344Z,99808.56
2023-02-20T12:46:34.306Z,99821.75
2023-02-20T12:51:15.108Z,99801.09
2023-02-20T12:55:40.304Z,99808.66
2023-02-20T13:00:27.427Z,99809.25
2023-02-20T13:04:37.468Z,99796.34
2023-02-20T13:09:13.082Z,99796.69
2023-02-20T13:13:16.905Z,99779.13
2023-02-20T13:17:33.911Z,99777.72
2023-02-20T13:21:36.596Z,99781.41
2023-02-20T13:25:45.932Z,99786.38
2023-02-20T13:30:01.959Z,99770.59
2023-02-20T13:34:07.597Z,99778.16
2023-02-20T13:38:14.536Z,99773.88
2023-02-20T13:42:33.780Z,99776.81
2023-02-20T13:47:03.542Z,99769.84
2023-02-20T13:51:21.679Z,99764.00
2023-02-20T13:55:28.972Z,99772.47
2023-02-20T13:59:40.014Z,99768.88
2023-02-20T14:03:42.286Z,99769.41
2023-02-20T14:07:45.645Z,99756.63
2023-02-20T14:11:50.371Z,99756.47
2023-02-20T14:15:57.223Z,99747.88
2023-02-20T14:20:14.324Z,99744.50
2023-02-20T14:24:29.560Z,99726.19
2023-02-20T14:28:34.086Z,99754.59
2023-02-20T14:32:39.641Z,99728.13
2023-02-20T14:37:22.113Z,99746.56
2023-02-20T14:41:24.990Z,99751.66
2023-02-20T14:45:27.444Z,99750.94
2023-02-20T14:49:31.386Z,99770.19
2023-02-20T14:53:36.164Z,99773.63
2023-02-20T14:57:38.104Z,99775.09
2023-02-20T15:01:40.401Z,99767.41
2023-02-20T15:05:42.546Z,99757.41
2023-02-20T15:09:46.307Z,99769.28
2023-02-20T15:13:48.296Z,99766.69
2023-02-20T15:17:50.208Z,99777.84
2023-02-20T15:21:58.861Z,99781.31
2023-02-20T15:26:29.057Z,99775.44
2023-02-20T15:30:31.531Z,99787.56
2023-02-20T15:34:37.654Z,99764.75
2023-02-20T15:38:45.057Z,99793.31
2023-02-20T15:42:50.179Z,99795.13
2023-02-20T15:46:54.416Z,99781.84
2023-02-20T15:50:59.470Z,99783.31
2023-02-20T15:55:01.944Z,99792.84
2023-02-20T15:59:09.783Z,99793.47
2023-02-20T16:03:11.806Z,99788.72
2023-02-20T16:07:14.521Z,99788.41
2023-02-20T16:11:17.618Z,99783.66
2023-02-20T16:15:21.560Z,99777.91
2023-02-20T16:19:36.588Z,99787.94
2023-02-20T16:23:46.713Z,99785.78
2023-02-20T16:27:52.686Z,99788.91
2023-02-20T16:32:00.289Z,99799.25
2023-02-20T16:36:02.083Z,99816.09
2023-02-20T16:40:04.195Z,99808.91
2023-02-20T16:44:43.488Z,99818.75
2023-02-20T16:48:49.242Z,99811.38
2023-02-20T16:52:52.398Z,99818.75
2023-02-20T16:56:54.321Z,99816.94
2023-02-20T17:00:57.813Z,99813.31
2023-02-20T17:05:00.433Z,99822.34
2023-02-20T17:09:02.342Z,99825.31
2023-02-20T17:13:04.188Z,99844.81
2023-02-20T17:17:07.057Z,99844.16
2023-02-20T17:21:11.485Z,99837.91
2023-02-20T17:25:16.512Z,99836.13
2023-02-20T17:29:18.490Z,99853.50
2023-02-20T17:33:25.879Z,99831.19
2023-02-20T17:37:30.477Z,99851.53
2023-02-20T17:41:32.434Z,99855.59
2023-02-20T17:45:34.279Z,99835.28
2023-02-20T17:49:36.418Z,99835.13
2023-02-20T17:53:38.319Z,99848.34
2023-02-20T17:57:40.314Z,99859.88
2023-02-20T18:01:43.824Z,99878.88
2023-02-20T18:05:45.678Z,99889.34
2023-02-20T18:09:47.763Z,99896.97
2023-02-20T18:13:49.792Z,99892.88
2023-02-20T18:17:54.545Z,99907.38
2023-02-20T18:21:56.499Z,99908.59
2023-02-20T18:26:01.171Z,99917.94
2023-02-20T18:30:03.318Z,99929.06
2023-02-20T18:34:05.301Z,99948.28
2023-02-20T18:38:07.284Z,99939.69
2023-02-20T18:42:09.364Z,99948.91
2023-02-20T18:46:12.450Z,99942.09
2023-02-20T18:50:15.761Z,99933.84
2023-02-20T18:54:27.153Z,99925.88
2023-02-20T18:58:30.245Z,99909.50
2023-02-20T19:02:32.312Z,99910.84
2023-02-20T19:06:44.825Z,99915.41
2023-02-20T19:10:46.797Z,99905.97
2023-02-20T19:14:48.765Z,99896.53
2023-02-20T19:18:51.235Z,99891.63
2023-02-20T19:22:56.560Z,99889.31
2023-02-20T19:26:58.436Z,99886.69
2023-02-20T19:31:03.732Z,99898.66
2023-02-20T19:35:06.320Z,99895.09
2023-02-20T19:39:09.623Z,99895.78
2023-02-20T19:43:11.647Z,99893.75
2023-02-20T19:47:15.325Z,99895.97
2023-02-20T19:51:19.473Z,99875.47
2023-02-20T19:55:21.805Z,99863.63
2023-02-20T19:59:23.659Z,99865.41
2023-02-20T20:03:25.536Z,99867.44
2023-02-20T20:07:28.737Z,99861.31
2023-02-20T20:11:30.711Z,99871.91
2023-02-20T20:15:34.151Z,99863.22
2023-02-20T20:19:37.031Z,99863.19
2023-02-20T20:23:38.851Z,99885.50
2023-02-20T20:27:40.885Z,99892.91
2023-02-20T20:31:43.036Z,99894.84
2023-02-20T20:35:52.338Z,99885.50
2023-02-20T20:39:56.674Z,99896.84
2023-02-20T20:44:04.414Z,99897.31
2023-02-20T20:48:06.303Z,99886.41
2023-02-20T20:52:08.470Z,99886.25
2023-02-20T20:56:10.948Z,99888.22
2023-02-20T21:00:22.685Z,99865.94
2023-02-20T21:04:24.602Z,99864.75
2023-02-20T21:08:26.633Z,99870.78
2023-02-20T21:12:28.432Z,99867.75
2023-02-20T21:16:31.312Z,99863.41
2023-02-20T21:20:35.310Z,99867.28
2023-02-20T21:24:38.137Z,99868.13
2023-02-20T21:28:40.330Z,99868.34
2023-02-20T21:32:42.090Z,99867.97
2023-02-20T21:36:44.023Z,99864.59
2023-02-20T21:40:47.863Z,99857.94
2023-02-20T21:44:50.939Z,99855.50
2023-02-20T21:48:53.149Z,99857.59
2023-02-20T21:52:55.040Z,99834.56
2023-02-20T21:57:00.261Z,99855.88
2023-02-20T22:01:02.059Z,99845.94
2023-02-20T22:05:04.467Z,99848.84
2023-02-20T22:09:25.144Z,99851.53
2023-02-20T22:13:45.266Z,99854.69
2023-02-20T22:18:05.573Z,99846.69
2023-02-20T22:22:25.974Z,99832.34
2023-02-20T22:26:47.177Z,99839.31
2023-02-20T22:31:07.479Z,99839.81
2023-02-20T22:35:30.976Z,99840.28
2023-02-20T22:39:51.410Z,99825.78
2023-02-20T22:44:14.816Z,99821.50
2023-02-20T22:48:35.172Z,99809.50
2023-02-20T22:52:55.496Z,99827.63
2023-02-20T22:57:16.554Z,99808.22
2023-02-20T23:01:36.952Z,99785.44
2023-02-20T23:06:04.940Z,99810.25
2023-02-20T23:10:32.064Z,99792.84
2023-02-20T23:14:52.954Z,99796.19
2023-02-20T23:19:13.145Z,99788.59
2023-02-20T23:23:35.350Z,99806.56
2023-02-20T23:27:55.800Z,99820.56
2023-02-20T23:32:15.986Z,99818.28
2023-02-20T23:36:36.544Z,99810.69
2023-02-20T23:40:57.005Z,99818.97
2023-02-20T23:45:19.901Z,99819.94
2023-02-20T23:49:40.106Z,99828.66
2023-02-20T23:54:00.489Z,99818.59
2023-02-20T23:58:20.964Z,99818.59
